Pomona, IL (62975)

14:30 CST le 09 février 2016 (GMT -0600)
Grand Tower Island | | Change Station
CLOSE
Current Station
Stations météorologiques personnelles
Location: Grand Tower, IL
Altitude: 344 ft
Stations météo à proximité

Alt. 344 ft 37.59 °N, 89.49 °W | Updated 30 minutes ago

Couvert
Couvert
23.0 ° F
Paraît 11 ° F
N
13.0
Vent Variable Vent de NO
Gusts 17.0 mph

Aujourd'hui
Haut(e) -- | Bas -- ° F
--% Risque de précip.
Hier
Haut(e) -- | Bas -- ° F
Precip. -- pouce
Pression 30.04 pouce
Visibilité 4.0 Miles terrestres
Nuages Peu 2500 ft
Nuages épars 3000 ft
Couvert 3900 ft
Refroidissement éolien 11 ° F
Point de rosée 16 ° F
Humidité 77%
Précipitations 0.00 pouce
Profondeur de la couche neigeuse Non disponible.
6:54 AM 5:29 PM
Nouvelle lune, 2% visible
METAR KMDH 091952Z 32013KT 4SM -SN FEW025 SCT030 OVC039 M06/M11 A3002 RMK AO2 SLP172 P0000 T10611111
Pression 30.04 pouce
Visibilité 4.0 Miles terrestres
Nuages Peu 2500 ft
Nuages épars 3000 ft
Couvert 3900 ft
Refroidissement éolien 11 ° F
Point de rosée 16 ° F
Humidité 77%
Précipitations 0.00 pouce
Profondeur de la couche neigeuse Non disponible.
6:54 AM 5:29 PM
Nouvelle lune, 2% visible
METAR KMDH 091952Z 32013KT 4SM -SN FEW025 SCT030 OVC039 M06/M11 A3002 RMK AO2 SLP172 P0000 T10611111

10-Day Weather Forecast

Almanac

Astronomie

Feb. 09, 2016 Lever Coucher
Temps réel
Crépuscule civil
Crépuscule nautique
Crépuscule astronomique
Lune
Durée de lumière visible
Longueur du jour
Tomorrow will be .
, % of the Moon is Illuminated

Extrêmes aujourd'hui

State Highs State Lows

Community

WunderPhotos

Upload Photos

1,891,679 Photos téléchargées !

WunderBlog® & News

Nearby

Qualité de l'air

  Qualité de l'air Indice de la qualité de l'air Polluant
Not available.

Épaisseur de neige

Station Depth Altitude

Activité sismique

Ville Distance Mag. Time & Date
Minimum magnitude displayed is 2.5.

Températures des eaux côtières

Lieu Température

Stations

Stations météo à proximité

Emplacement de la station Température Refroidissement éolien Point de rosée Humidité Vent Precip. Alt. Mise à jour Type
                   

Watches & Warnings

There are currently no watches in effect.